Página principal
METAR-TAF:

METAR-TAF

Aeroportos :

Hanói, Vietname

Aeroporto Internacional de Noi Bai

latitude: 21-01N, longitude: 105-48E, altura: 6 m

Observação actual do tempo

O boletim foi feito há 22 minutos, às 00:30 UTC
Vento 5 kt de nordeste
Temperatura 15°C
Humidade 63%
Pressão 1021 hPa
Visibilidade 10 km ou mais
Nuvens fragmentadasa uma altura de 3300 ft

METAR: VVNB 230030Z 05005KT 9999 BKN033 15/08 Q1021 NOSIG

Hora: 07:52 (00:52 UTC)

Previsão

O boletim foi feito há 1 hora e 52 minutos, às 23:00 UTC
Previsão válida de 23 às 00 UTC a 23 às 24 UTC
Vento 8 kt de nordeste
Visibilidade 10 km ou mais
Nuvens fragmentadasa uma altura de 3200 ft
Tornando-se
de 23 às 18 UTC a 23 às 20 UTC
Visibilidade: 4000 m
neblina

TAF: VVNB 222300Z 2300/2324 05008KT 9999 BKN032 BECMG 2318/2320 4000 BR

Observações e previsões do tempo de mais de 4000 aeroportos (mensagens METAR e TAF).

As estações disponíveis são os pontos amarelos e vermelhos sobre o mapa.

Mova o rato sobre o mapa para ver o nome da estação.

Depois clique no ponto para visualizar as observações e previsões meteorológicas.

Para alterar o mapa : clique nos botões verdes com uma cruz preta para aumentar o zoom; no botão verde com uma pitada de zoom; ou nas setas verdes para mapas adjacentes.


METAR-TAF: